Time;durP1;ratioP1;P1;durP2;ratioP2;P2;SDS_P1;SDS_P2;PMS_P1;PMS_P2;Temp;Humidity;BMP_temperature;BMP_pressure;BME280_temperature;BME280_humidity;BME280_pressure;Samples;Min_cycle;Max_cycle;Signal;HPM_P1;HPM_P2
2023/07/09 00:02:26;;;;;;;;;26.75;25.00;;;;;21.47;39.64;99738.19;5109149;28;8875;-78
2023/07/09 00:04:56;;;;;;;;;26.00;24.20;;;;;21.44;39.26;99739.22;5109720;28;8952;-77
2023/07/09 00:07:28;;;;;;;;;23.60;23.00;;;;;21.41;38.79;99732.25;5126048;27;8946;-74
2023/07/09 00:09:58;;;;;;;;;24.80;22.60;;;;;21.32;38.60;99732.81;5130052;27;8853;-76
2023/07/09 00:12:27;;;;;;;;;24.20;22.20;;;;;21.32;38.66;99731.97;5095356;27;8881;-76
2023/07/09 00:14:57;;;;;;;;;21.60;21.60;;;;;21.33;38.76;99733.69;5095782;27;8826;-76
2023/07/09 00:17:33;;;;;;;;;25.60;24.80;;;;;21.44;38.81;99737.38;5108921;28;8842;-77
2023/07/09 00:20:04;;;;;;;;;25.40;25.40;;;;;21.43;39.41;99746.38;5091755;28;8853;-77
2023/07/09 00:22:34;;;;;;;;;26.75;26.75;;;;;21.51;39.63;99747.72;5117774;27;8830;-76
2023/07/09 00:25:04;;;;;;;;;30.80;26.00;;;;;21.54;40.25;99755.53;5112076;27;8849;-79
2023/07/09 00:27:33;;;;;;;;;32.25;30.50;;;;;21.57;40.83;99752.66;5129204;27;8845;-77
2023/07/09 00:30:04;;;;;;;;;31.25;29.25;;;;;21.56;41.10;99753.59;5098811;28;8853;-78
2023/07/09 00:32:43;;;;;;;;;31.50;30.50;;;;;21.55;40.67;99763.47;5067699;28;8858;-78
2023/07/09 00:35:15;;;;;;;;;27.50;27.50;;;;;21.52;40.99;99757.44;5068291;28;8846;-77
2023/07/09 00:37:45;;;;;;;;;32.50;29.75;;;;;21.48;40.37;99754.09;5066174;28;8873;-76
2023/07/09 00:40:18;;;;;;;;;27.00;27.00;;;;;21.47;40.22;99748.88;5068090;28;8873;-77
2023/07/09 00:42:48;;;;;;;;;27.50;27.50;;;;;21.32;40.23;99762.25;5068509;28;8965;-76
2023/07/09 00:45:23;;;;;;;;;27.00;26.80;;;;;21.12;41.11;99758.13;5068409;28;8869;-75
2023/07/09 00:47:56;;;;;;;;;31.80;30.20;;;;;21.16;41.22;99761.47;5068151;28;8854;-76
2023/07/09 00:50:41;;;;;;;;;32.00;28.00;;;;;21.28;40.88;99760.72;5051138;28;8866;-77
2023/07/09 00:53:18;;;;;;;;;30.50;30.00;;;;;21.17;41.75;99761.38;5048782;28;8831;-76
2023/07/09 00:55:52;;;;;;;;;18.75;17.50;;;;;21.10;41.49;99760.03;5051044;28;8936;-77
2023/07/09 00:58:26;;;;;;;;;26.80;26.80;;;;;21.01;41.41;99761.47;5035343;28;8831;-78
2023/07/09 01:00:59;;;;;;;;;28.00;25.80;;;;;20.96;41.62;99760.03;5047564;28;8870;-78
2023/07/09 01:03:43;;;;;;;;;27.40;25.40;;;;;21.08;41.03;99748.56;5047036;28;8859;-78
2023/07/09 01:06:13;;;;;;;;;24.60;24.60;;;;;20.95;41.47;99763.63;5047469;28;8965;-78
2023/07/09 01:08:42;;;;;;;;;24.00;23.40;;;;;20.93;41.26;99754.88;5047989;28;8847;-77
2023/07/09 01:11:20;;;;;;;;;26.40;24.40;;;;;20.97;41.09;99757.25;5082940;28;9620;-77
2023/07/09 01:13:52;;;;;;;;;26.00;24.20;;;;;20.87;41.57;99758.72;5070680;28;8842;-77
2023/07/09 01:16:24;;;;;;;;;25.00;22.40;;;;;20.82;41.68;99761.69;5087281;28;8861;-75
2023/07/09 01:18:55;;;;;;;;;23.20;23.20;;;;;20.74;41.42;99757.75;5070397;28;8834;-75
2023/07/09 01:21:26;;;;;;;;;23.60;22.80;;;;;20.57;41.76;99750.75;5053760;28;8849;-76
2023/07/09 01:23:57;;;;;;;;;26.00;24.20;;;;;20.46;41.28;99756.72;5070539;28;8854;-77
2023/07/09 01:26:28;;;;;;;;;23.60;23.40;;;;;20.25;41.97;99759.69;5079886;28;8882;-76
2023/07/09 01:28:57;;;;;;;;;22.00;22.00;;;;;20.23;42.04;99753.56;5107347;28;8843;-75
2023/07/09 01:31:26;;;;;;;;;22.60;21.20;;;;;20.22;41.40;99761.66;5090621;28;8836;-77
2023/07/09 01:33:55;;;;;;;;;24.60;23.40;;;;;20.23;41.50;99760.72;5090431;28;8916;-77
2023/07/09 01:36:26;;;;;;;;;19.40;19.40;;;;;20.13;41.46;99756.84;5067222;28;8830;-77
2023/07/09 01:38:54;;;;;;;;;19.80;19.60;;;;;20.15;41.67;99760.28;5066188;28;8858;-76
2023/07/09 01:41:23;;;;;;;;;23.00;21.60;;;;;20.17;42.02;99772.59;5073968;28;9636;-76
2023/07/09 01:43:53;;;;;;;;;21.40;20.00;;;;;20.18;42.18;99766.31;5087267;28;8873;-77
2023/07/09 01:46:22;;;;;;;;;22.60;20.60;;;;;20.22;42.21;99775.88;5060329;28;8846;-77
2023/07/09 01:48:52;;;;;;;;;24.80;22.80;;;;;20.23;42.64;99771.41;5066933;28;9849;-77
2023/07/09 01:51:24;;;;;;;;;24.00;22.80;;;;;20.24;42.43;99768.66;5050346;28;8874;-77
2023/07/09 01:53:54;;;;;;;;;26.20;25.60;;;;;20.03;42.64;99764.53;5050043;28;9663;-78
2023/07/09 01:56:24;;;;;;;;;25.00;24.40;;;;;19.71;43.35;99770.72;5066814;28;8866;-78
2023/07/09 01:58:53;;;;;;;;;24.00;22.20;;;;;19.54;43.76;99768.13;5060279;28;8883;-77
2023/07/09 02:01:25;;;;;;;;;24.60;23.20;;;;;19.60;43.72;99766.94;5070047;28;9664;-77
2023/07/09 02:03:55;;;;;;;;;22.20;20.60;;;;;19.56;44.08;99773.38;5069789;28;9564;-77
2023/07/09 02:06:24;;;;;;;;;22.40;22.40;;;;;19.52;44.22;99772.69;5024280;28;8938;-77
2023/07/09 02:08:58;;;;;;;;;20.60;20.60;;;;;19.42;44.80;99766.94;5064093;28;9535;-78
2023/07/09 02:11:27;;;;;;;;;27.60;24.80;;;;;19.35;44.97;99778.03;5047570;28;9018;-77
2023/07/09 02:13:55;;;;;;;;;26.00;23.60;;;;;19.37;45.24;99778.81;5047644;28;8987;-79
2023/07/09 02:16:24;;;;;;;;;24.20;22.20;;;;;19.47;44.77;99782.69;5097235;28;8840;-78
2023/07/09 02:18:53;;;;;;;;;24.20;23.00;;;;;19.56;44.98;99778.72;5087423;28;8940;-77
2023/07/09 02:21:23;;;;;;;;;26.20;24.40;;;;;19.61;44.76;99774.84;5080944;28;8985;-78
2023/07/09 02:23:53;;;;;;;;;23.60;22.60;;;;;19.68;44.56;99783.34;5048959;28;8881;-77
2023/07/09 02:26:23;;;;;;;;;25.80;24.60;;;;;19.74;44.86;99779.50;5065986;28;8875;-76
2023/07/09 02:28:52;;;;;;;;;24.80;24.00;;;;;19.77;44.86;99776.66;5016151;28;8956;-76
2023/07/09 02:31:21;;;;;;;;;20.00;19.40;;;;;19.80;44.77;99780.03;5065619;28;8902;-77
2023/07/09 02:33:50;;;;;;;;;24.60;22.80;;;;;19.83;44.69;99781.66;4997279;28;8873;-77
2023/07/09 02:36:19;;;;;;;;;25.80;25.20;;;;;19.82;44.76;99783.47;5045681;28;8870;-77
2023/07/09 02:38:48;;;;;;;;;24.20;24.20;;;;;19.82;44.82;99785.25;4954282;28;8893;-79
2023/07/09 02:41:17;;;;;;;;;25.80;24.60;;;;;19.84;44.56;99783.34;4984114;28;8882;-77
2023/07/09 02:43:47;;;;;;;;;26.40;25.20;;;;;19.83;44.81;99785.19;5005773;28;8859;-76
2023/07/09 02:46:16;;;;;;;;;22.00;21.60;;;;;19.79;45.08;99788.97;4958174;28;8859;-78
2023/07/09 02:48:45;;;;;;;;;28.80;25.80;;;;;19.78;44.99;99789.91;5011068;28;8834;-76
2023/07/09 02:51:14;;;;;;;;;25.20;25.20;;;;;19.79;44.84;99793.44;5009269;28;8837;-77
2023/07/09 02:53:43;;;;;;;;;21.60;21.40;;;;;19.69;45.17;99793.09;5000114;28;8906;-77
2023/07/09 02:56:11;;;;;;;;;24.40;23.40;;;;;19.73;45.15;99796.47;5009340;28;8902;-76
2023/07/09 02:58:40;;;;;;;;;24.80;24.80;;;;;19.73;45.40;99796.47;5025351;28;8843;-77
2023/07/09 03:01:12;;;;;;;;;23.80;21.80;;;;;19.73;45.45;99794.66;4961042;28;8859;-77
2023/07/09 03:03:41;;;;;;;;;27.80;24.20;;;;;19.74;45.40;99796.34;5025600;28;8909;-77
2023/07/09 03:06:11;;;;;;;;;30.40;27.20;;;;;19.71;45.54;99794.72;5030065;28;8881;-77
2023/07/09 03:08:40;;;;;;;;;33.25;31.75;;;;;19.70;45.57;99800.13;5029029;28;8853;-77
2023/07/09 03:11:11;;;;;;;;;30.00;28.00;;;;;19.69;45.64;99807.28;5068313;28;8879;-76
2023/07/09 03:13:40;;;;;;;;;32.20;24.40;;;;;19.71;45.60;99808.06;5070467;28;8844;-77
2023/07/09 03:16:11;;;;;;;;;25.20;21.80;;;;;19.73;45.76;99815.13;5072995;28;8854;-76
2023/07/09 03:18:40;;;;;;;;;22.80;22.80;;;;;19.72;45.75;99806.25;5050349;28;8842;-77
2023/07/09 03:21:09;;;;;;;;;28.80;25.00;;;;;19.73;45.74;99805.31;5066977;28;8851;-77
2023/07/09 03:23:37;;;;;;;;;23.80;23.80;;;;;19.75;45.68;99798.09;5072664;28;8859;-77
2023/07/09 03:26:07;;;;;;;;;27.20;24.40;;;;;19.76;45.94;99804.28;5086624;28;8938;-77
2023/07/09 03:28:36;;;;;;;;;24.00;23.60;;;;;19.77;45.75;99806.84;5087071;28;8859;-76
2023/07/09 03:31:05;;;;;;;;;28.80;26.80;;;;;19.81;45.87;99808.41;5086810;28;8868;-77
2023/07/09 03:33:35;;;;;;;;;28.00;25.00;;;;;19.87;45.82;99800.06;5067888;28;8846;-78
2023/07/09 03:36:05;;;;;;;;;26.00;25.20;;;;;19.93;45.85;99803.34;5074022;28;8850;-76
2023/07/09 03:38:34;;;;;;;;;23.80;23.80;;;;;19.97;45.89;99810.22;5054577;28;8873;-77
2023/07/09 03:41:03;;;;;;;;;50.75;41.75;;;;;20.04;45.89;99808.94;5092390;28;9700;-77
2023/07/09 03:43:32;;;;;;;;;40.75;35.00;;;;;19.90;46.13;99815.91;5091717;28;8909;-76
2023/07/09 03:46:01;;;;;;;;;25.80;24.20;;;;;19.78;46.44;99818.38;5091967;28;8966;-77
2023/07/09 03:48:30;;;;;;;;;23.40;21.80;;;;;19.88;46.44;99817.81;5091432;28;8963;-77
2023/07/09 03:51:01;;;;;;;;;26.60;23.40;;;;;19.99;45.92;99824.34;5071852;28;8848;-77
2023/07/09 03:53:29;;;;;;;;;28.00;23.20;;;;;20.11;46.19;99823.66;5071602;28;8864;-76
2023/07/09 03:55:59;;;;;;;;;25.00;23.00;;;;;20.05;46.28;99829.34;5075062;28;8835;-77
2023/07/09 03:58:29;;;;;;;;;25.40;25.20;;;;;19.91;46.64;99832.75;5091129;28;8868;-78
2023/07/09 04:00:58;;;;;;;;;27.25;26.75;;;;;19.37;48.26;99837.47;5052022;28;8889;-77
2023/07/09 04:03:27;;;;;;;;;26.80;25.40;;;;;19.33;48.71;99842.09;5070795;28;8849;-77
2023/07/09 04:05:56;;;;;;;;;26.60;26.00;;;;;19.16;49.29;99840.31;5069453;28;8843;-78
2023/07/09 04:08:26;;;;;;;;;25.60;25.00;;;;;19.04;49.91;99838.28;5070737;28;8935;-76
2023/07/09 04:10:56;;;;;;;;;29.00;26.80;;;;;19.29;49.26;99836.06;5070781;28;8958;-77
2023/07/09 04:13:27;;;;;;;;;25.80;24.80;;;;;19.52;48.64;99834.88;5082583;28;8852;-78
2023/07/09 04:15:56;;;;;;;;;26.00;24.00;;;;;19.80;48.07;99835.16;5072608;28;8870;-76
2023/07/09 04:18:25;;;;;;;;;25.20;25.00;;;;;20.06;47.56;99836.38;5090707;28;8836;-76
2023/07/09 04:20:54;;;;;;;;;28.40;27.60;;;;;20.31;47.14;99835.88;5078488;28;8851;-76
2023/07/09 04:23:22;;;;;;;;;25.40;24.80;;;;;20.48;46.77;99832.25;5070336;28;8857;-77
2023/07/09 04:25:53;;;;;;;;;28.60;28.60;;;;;20.52;46.52;99833.81;5051477;28;8865;-76
2023/07/09 04:28:21;;;;;;;;;33.50;30.50;;;;;20.52;46.69;99839.16;5051600;28;8838;-77
2023/07/09 04:30:52;;;;;;;;;26.40;26.40;;;;;20.71;46.49;99838.94;5090419;28;8848;-76
2023/07/09 04:33:22;;;;;;;;;13.00;12.60;;;;;20.90;46.03;99841.41;5070139;28;8870;-77
2023/07/09 04:35:51;;;;;;;;;35.20;29.80;;;;;20.93;46.01;99845.72;5034804;28;8842;-77
2023/07/09 04:38:20;;;;;;;;;29.25;28.25;;;;;21.11;45.65;99854.47;5070097;28;8887;-76
2023/07/09 04:40:50;;;;;;;;;24.40;23.20;;;;;20.96;45.83;99849.06;5070383;28;8911;-78
2023/07/09 04:43:20;;;;;;;;;30.50;30.00;;;;;20.92;46.25;99850.22;5069197;28;8979;-77
2023/07/09 04:45:50;;;;;;;;;27.60;25.40;;;;;21.05;45.47;99850.34;5082745;28;9036;-77
2023/07/09 04:48:19;;;;;;;;;35.00;32.00;;;;;21.08;45.74;99851.97;5039612;28;8868;-78
2023/07/09 04:50:50;;;;;;;;;60.00;49.00;;;;;20.99;45.40;99846.22;5054952;28;9616;-77
2023/07/09 04:53:18;;;;;;;;;32.50;30.75;;;;;20.82;45.62;99857.88;5077858;28;8866;-77
2023/07/09 04:55:47;;;;;;;;;30.50;29.25;;;;;20.89;45.92;99861.03;5069876;28;8870;-76
2023/07/09 04:58:16;;;;;;;;;30.20;25.60;;;;;20.92;45.89;99866.25;5070071;28;8998;-77
2023/07/09 05:00:47;;;;;;;;;32.00;30.75;;;;;21.17;45.77;99862.09;5050948;28;8874;-77
2023/07/09 05:03:16;;;;;;;;;29.25;26.75;;;;;21.45;44.93;99853.25;5084561;28;8835;-76
2023/07/09 05:05:46;;;;;;;;;32.25;29.75;;;;;21.56;44.63;99865.94;5089926;28;8832;-76
2023/07/09 05:08:15;;;;;;;;;29.60;26.60;;;;;21.75;44.02;99863.91;5053862;28;8832;-76
2023/07/09 05:10:44;;;;;;;;;27.60;27.60;;;;;21.42;43.87;99861.47;5090042;28;8843;-77
2023/07/09 05:13:13;;;;;;;;;28.40;28.20;;;;;21.74;44.07;99870.19;5075509;28;8866;-79
2023/07/09 05:15:46;;;;;;;;;26.20;24.80;;;;;21.74;43.17;99867.53;5069541;28;8935;-76
2023/07/09 05:18:16;;;;;;;;;26.20;25.20;;;;;21.94;43.40;99868.97;5069461;28;8982;-77
2023/07/09 05:20:48;;;;;;;;;25.20;24.40;;;;;22.08;43.13;99867.22;5082329;28;8838;-77
2023/07/09 05:23:17;;;;;;;;;29.40;27.20;;;;;22.04;43.21;99864.72;5088272;28;8851;-77
2023/07/09 05:25:46;;;;;;;;;25.40;24.60;;;;;22.19;42.54;99867.38;5089497;28;8848;-77
2023/07/09 05:28:14;;;;;;;;;26.60;25.60;;;;;22.39;42.51;99866.09;5077947;28;8855;-77
2023/07/09 05:30:43;;;;;;;;;27.50;26.50;;;;;22.56;41.99;99860.53;5069159;28;8893;-78
2023/07/09 05:33:12;;;;;;;;;27.40;26.60;;;;;22.70;41.91;99858.75;5069585;28;10067;-77
2023/07/09 05:35:43;;;;;;;;;23.60;23.60;;;;;22.75;42.11;99870.00;5084553;28;8850;-77
2023/07/09 05:38:12;;;;;;;;;40.75;35.75;;;;;22.93;41.72;99862.59;5080964;28;8855;-76
2023/07/09 05:40:41;;;;;;;;;25.60;24.40;;;;;23.09;41.27;99857.91;5089285;28;8832;-77
2023/07/09 05:43:11;;;;;;;;;32.40;30.20;;;;;23.01;41.41;99860.22;5082300;28;8905;-77
2023/07/09 05:45:40;;;;;;;;;1.80;1.20;;;;;23.21;41.25;99858.88;5070220;28;8877;-76
2023/07/09 05:48:09;;;;;;;;;30.00;27.20;;;;;23.38;40.81;99871.13;5067927;28;8859;-78
2023/07/09 05:50:38;;;;;;;;;27.80;25.00;;;;;23.47;40.39;99870.47;5068994;28;8858;-76
2023/07/09 05:53:08;;;;;;;;;24.60;24.40;;;;;23.62;39.98;99865.03;5078005;28;8882;-76
2023/07/09 05:55:37;;;;;;;;;24.80;24.60;;;;;23.67;40.15;99869.09;5070013;28;8881;-76
2023/07/09 05:58:07;;;;;;;;;27.20;26.20;;;;;23.32;39.43;99874.25;5065268;28;8854;-75
2023/07/09 06:00:37;;;;;;;;;30.20;29.20;;;;;22.74;39.63;99876.34;5066185;28;8854;-76
2023/07/09 06:03:07;;;;;;;;;34.50;32.25;;;;;22.68;39.92;99879.44;5057056;28;8842;-76
2023/07/09 06:05:37;;;;;;;;;24.80;23.00;;;;;22.89;40.35;99874.47;5046098;28;8849;-77
2023/07/09 06:08:05;;;;;;;;;27.40;25.40;;;;;22.33;42.24;99886.13;5029108;28;8892;-76
2023/07/09 06:10:36;;;;;;;;;27.00;25.60;;;;;22.67;41.48;99875.00;5058867;28;8862;-79
2023/07/09 06:13:04;;;;;;;;;26.20;25.20;;;;;22.90;40.85;99882.44;5065474;28;8886;-78
2023/07/09 06:15:34;;;;;;;;;26.00;24.80;;;;;22.37;41.67;99884.09;5065530;28;8844;-76
2023/07/09 06:18:03;;;;;;;;;27.20;25.80;;;;;22.36;42.02;99887.75;5049835;28;8893;-76
2023/07/09 06:20:32;;;;;;;;;19.80;19.80;;;;;22.80;40.64;99881.28;5045554;28;8858;-76
2023/07/09 06:23:02;;;;;;;;;30.60;28.20;;;;;22.83;40.11;99880.19;4996953;28;8988;-76
2023/07/09 06:25:31;;;;;;;;;36.25;31.00;;;;;23.22;39.02;99874.00;5045834;28;8876;-77
2023/07/09 06:28:01;;;;;;;;;22.80;22.80;;;;;22.93;39.13;99879.53;5048493;28;8868;-77
2023/07/09 06:30:30;;;;;;;;;17.20;17.20;;;;;23.42;38.95;99872.63;5036658;28;8864;-77
2023/07/09 06:32:58;;;;;;;;;17.20;17.20;;;;;23.13;37.91;99877.31;5085694;28;8988;-76
2023/07/09 06:35:27;;;;;;;;;19.80;19.80;;;;;22.47;39.06;99879.00;5057127;28;9766;-76
2023/07/09 06:37:56;;;;;;;;;18.00;18.00;;;;;22.72;38.60;99876.44;5064361;28;8977;-75
2023/07/09 06:40:25;;;;;;;;;17.80;17.20;;;;;23.01;38.04;99873.63;5053099;28;8848;-78
2023/07/09 06:42:54;;;;;;;;;17.40;17.00;;;;;23.27;37.17;99874.53;5074364;28;8876;-77
2023/07/09 06:45:30;;;;;;;;;20.80;18.60;;;;;22.58;37.83;99871.13;5003753;28;8862;-74
2023/07/09 06:48:00;;;;;;;;;13.80;13.80;;;;;22.61;36.60;99879.81;5036139;28;9588;-76
2023/07/09 06:50:30;;;;;;;;;14.20;14.20;;;;;22.98;36.00;99868.50;5051036;28;8861;-75
2023/07/09 06:52:59;;;;;;;;;14.00;12.80;;;;;22.59;34.92;99872.84;5061151;28;8976;-74
2023/07/09 06:55:28;;;;;;;;;16.40;15.60;;;;;22.00;36.13;99876.59;5047427;28;8942;-76
2023/07/09 06:57:56;;;;;;;;;13.00;13.00;;;;;22.48;36.08;99867.34;5046842;28;8844;-77
2023/07/09 07:00:25;;;;;;;;;15.60;15.60;;;;;22.54;36.29;99872.28;5036538;28;8852;-75
2023/07/09 07:02:56;;;;;;;;;14.80;14.80;;;;;22.55;36.19;99869.50;5067338;28;8927;-76
2023/07/09 07:05:26;;;;;;;;;16.20;16.20;;;;;22.95;35.57;99874.06;5052730;28;8867;-76
2023/07/09 07:07:55;;;;;;;;;12.40;12.40;;;;;23.20;34.83;99873.22;5065330;28;8850;-75
2023/07/09 07:10:26;;;;;;;;;16.60;16.60;;;;;22.17;36.22;99883.53;5066828;28;9005;-76
2023/07/09 07:12:55;;;;;;;;;16.20;15.20;;;;;22.57;35.75;99886.34;5036600;28;8874;-75
2023/07/09 07:15:24;;;;;;;;;14.80;13.60;;;;;22.31;36.41;99892.53;5008377;28;8845;-76
2023/07/09 07:17:53;;;;;;;;;18.00;15.20;;;;;22.55;36.85;99885.59;5016052;28;8977;-74
2023/07/09 07:20:24;;;;;;;;;15.60;15.00;;;;;22.69;36.56;99886.50;5032981;28;8884;-74
2023/07/09 07:22:53;;;;;;;;;16.80;15.00;;;;;22.15;37.70;99884.63;5029159;28;8993;-73
2023/07/09 07:25:22;;;;;;;;;17.40;16.40;;;;;22.09;38.17;99893.00;5029070;28;8864;-71
2023/07/09 07:27:51;;;;;;;;;13.20;11.00;;;;;22.22;37.64;99883.25;5009494;28;9046;-75
2023/07/09 07:30:20;;;;;;;;;15.40;15.00;;;;;22.87;36.09;99884.41;5003328;28;8838;-74
2023/07/09 07:32:53;;;;;;;;;17.20;15.20;;;;;23.24;35.89;99881.94;4963609;28;8886;-73
2023/07/09 07:35:24;;;;;;;;;16.60;16.00;;;;;23.70;34.74;99876.09;4928619;28;8984;-74
2023/07/09 07:37:53;;;;;;;;;18.60;17.20;;;;;23.48;34.98;99874.00;4989781;28;8924;-74
2023/07/09 07:40:22;;;;;;;;;18.40;16.80;;;;;23.18;35.61;99875.16;4988495;28;9085;-73
2023/07/09 07:42:50;;;;;;;;;16.00;16.00;;;;;23.56;34.95;99869.88;4974120;28;8867;-75
2023/07/09 07:45:20;;;;;;;;;22.80;18.40;;;;;23.84;34.05;99888.53;4982465;28;8838;-74
2023/07/09 07:47:51;;;;;;;;;16.20;15.60;;;;;23.65;34.79;99872.88;5040033;28;8926;-72
2023/07/09 07:50:20;;;;;;;;;20.00;19.40;;;;;23.54;35.65;99878.97;5033038;28;8836;-74
2023/07/09 07:52:50;;;;;;;;;20.20;19.80;;;;;23.09;37.07;99870.44;5021427;28;8847;-73
2023/07/09 07:55:19;;;;;;;;;22.80;22.60;;;;;23.04;36.99;99878.81;5051976;28;8877;-72
2023/07/09 07:57:48;;;;;;;;;21.80;21.20;;;;;23.57;34.36;99868.03;5028495;28;8917;-73
2023/07/09 08:00:18;;;;;;;;;15.20;14.80;;;;;24.12;33.90;99868.59;5054366;28;8854;-72
2023/07/09 08:02:48;;;;;;;;;12.60;11.80;;;;;24.61;33.12;99869.53;5070506;28;9000;-74
2023/07/09 08:05:17;;;;;;;;;15.20;15.20;;;;;24.93;31.70;99876.03;5069497;28;8854;-73
2023/07/09 08:07:46;;;;;;;;;13.20;11.40;;;;;25.25;31.08;99866.50;5066522;28;8941;-74
2023/07/09 08:10:16;;;;;;;;;17.00;14.40;;;;;25.46;31.06;99870.22;5075845;28;8908;-73
2023/07/09 08:12:45;;;;;;;;;15.80;14.60;;;;;25.76;30.75;99871.47;5070105;28;8850;-72
2023/07/09 08:15:14;;;;;;;;;13.80;13.60;;;;;25.93;29.73;99867.47;5069734;28;8854;-74
2023/07/09 08:17:43;;;;;;;;;14.00;14.00;;;;;25.30;30.51;99873.22;5066177;28;8870;-73
2023/07/09 08:20:12;;;;;;;;;13.60;13.60;;;;;25.73;30.22;99871.69;5030362;28;8848;-72
2023/07/09 08:22:41;;;;;;;;;15.60;14.40;;;;;25.10;30.40;99876.59;5069312;28;8962;-73
2023/07/09 08:25:10;;;;;;;;;11.20;10.60;;;;;24.45;30.92;99884.13;5054207;28;8878;-70
2023/07/09 08:27:40;;;;;;;;;11.00;10.80;;;;;25.05;30.66;99885.00;5070183;28;8854;-74
2023/07/09 08:30:10;;;;;;;;;14.60;14.40;;;;;24.62;30.61;99876.59;5061548;28;8880;-74
2023/07/09 08:32:39;;;;;;;;;11.60;11.60;;;;;24.44;31.20;99890.44;5065731;28;8854;-74
2023/07/09 08:35:10;;;;;;;;;9.40;9.40;;;;;25.00;29.75;99887.22;5070585;28;8857;-73
2023/07/09 08:37:41;;;;;;;;;13.00;12.00;;;;;25.37;29.17;99878.16;5035469;28;8862;-75
2023/07/09 08:40:14;;;;;;;;;9.60;9.60;;;;;25.68;28.71;99874.78;5034946;28;8850;-72
2023/07/09 08:42:47;;;;;;;;;28.25;27.25;;;;;25.91;29.13;99874.81;5069638;28;8903;-74
2023/07/09 08:45:40;;;;;;;;;11.00;10.40;;;;;26.24;28.82;99871.19;5070234;28;8869;-73
2023/07/09 08:48:16;;;;;;;;;11.80;11.80;;;;;26.26;28.05;99865.69;5070145;28;9752;-73
2023/07/09 08:50:51;;;;;;;;;9.00;9.00;;;;;26.35;28.49;99875.72;5070040;28;8858;-75
2023/07/09 08:53:22;;;;;;;;;10.80;10.80;;;;;26.51;28.52;99875.31;5067455;28;9628;-74
2023/07/09 08:55:52;;;;;;;;;8.80;8.80;;;;;26.46;27.54;99866.75;5075239;28;8932;-74
2023/07/09 08:58:26;;;;;;;;;11.80;11.20;;;;;26.40;26.94;99868.09;5070146;28;8842;-73
2023/07/09 09:00:57;;;;;;;;;9.80;8.80;;;;;26.45;27.66;99873.09;5068342;28;8834;-73
2023/07/09 09:03:35;;;;;;;;;7.20;7.20;;;;;26.44;28.19;99874.97;5070064;28;8831;-75
2023/07/09 09:06:11;;;;;;;;;11.00;10.20;;;;;26.78;28.62;99868.63;5069938;28;8850;-73
2023/07/09 09:08:45;;;;;;;;;13.00;13.00;;;;;26.91;28.57;99871.13;5069892;28;8850;-73
2023/07/09 09:11:22;;;;;;;;;14.60;14.60;;;;;27.22;28.62;99875.66;5064495;28;8852;-72
2023/07/09 09:13:56;;;;;;;;;11.80;11.00;;;;;27.05;27.18;99877.09;5086665;28;8928;-74
2023/07/09 09:16:28;;;;;;;;;10.00;10.00;;;;;27.03;27.54;99878.22;5071459;28;9601;-74
2023/07/09 09:19:00;;;;;;;;;11.80;11.80;;;;;27.03;27.93;99868.28;5069946;28;8854;-73
2023/07/09 09:21:34;;;;;;;;;9.00;9.00;;;;;27.16;28.07;99876.19;5069755;28;8858;-73
2023/07/09 09:24:15;;;;;;;;;12.80;11.80;;;;;25.96;28.48;99887.88;5069644;28;8893;-74
2023/07/09 09:26:45;;;;;;;;;12.60;11.80;;;;;26.53;28.99;99886.88;5069366;28;8889;-73
2023/07/09 09:29:17;;;;;;;;;12.00;11.80;;;;;26.62;28.60;99877.97;5074040;28;8860;-75
2023/07/09 09:31:50;;;;;;;;;15.20;15.20;;;;;25.88;29.25;99888.47;5083905;28;8859;-73
2023/07/09 09:34:20;;;;;;;;;10.80;10.80;;;;;25.70;28.64;99888.97;5069148;28;9033;-74
2023/07/09 09:36:50;;;;;;;;;12.20;11.00;;;;;25.70;28.72;99888.97;5069211;28;8927;-74
2023/07/09 09:39:19;;;;;;;;;12.60;12.60;;;;;25.49;28.21;99891.53;5067722;28;8854;-74
2023/07/09 09:41:48;;;;;;;;;11.80;11.80;;;;;25.30;28.51;99881.31;5067634;28;8854;-73
2023/07/09 09:44:26;;;;;;;;;9.80;9.80;;;;;25.69;28.59;99889.94;5068811;28;8866;-74
2023/07/09 09:46:57;;;;;;;;;12.60;11.80;;;;;25.79;28.10;99886.50;5093966;28;8844;-74
2023/07/09 09:49:28;;;;;;;;;11.60;9.40;;;;;26.13;27.81;99879.28;5070388;28;8993;-73
2023/07/09 09:52:03;;;;;;;;;7.40;7.20;;;;;26.52;26.01;99876.19;5068647;28;8854;-73
2023/07/09 09:54:32;;;;;;;;;7.80;7.80;;;;;26.69;25.07;99877.50;5069067;28;8939;-74
2023/07/09 09:57:01;;;;;;;;;9.60;8.60;;;;;26.73;25.14;99877.09;5068510;28;8838;-73
2023/07/09 09:59:33;;;;;;;;;8.60;8.60;;;;;26.94;24.61;99887.91;5068646;28;8927;-73
2023/07/09 10:02:17;;;;;;;;;6.20;6.20;;;;;27.27;23.90;99877.09;5067189;28;8862;-74
2023/07/09 10:04:47;;;;;;;;;10.40;9.40;;;;;27.41;23.73;99876.75;5088832;28;8856;-73
2023/07/09 10:07:23;;;;;;;;;9.80;9.80;;;;;27.47;24.04;99868.13;5078935;28;8830;-74
2023/07/09 10:09:53;;;;;;;;;9.60;8.60;;;;;27.30;23.96;99874.13;5068069;28;8854;-75
2023/07/09 10:12:39;;;;;;;;;5.00;4.60;;;;;27.60;24.35;99870.66;5049582;28;8867;-75
2023/07/09 10:15:26;;;;;;;;;7.80;7.80;;;;;27.52;23.52;99863.19;5068230;28;8863;-74
2023/07/09 10:18:02;;;;;;;;;9.00;9.00;;;;;27.13;23.64;99872.91;5068099;28;8862;-73
2023/07/09 10:20:37;;;;;;;;;8.20;8.20;;;;;26.89;23.97;99865.00;5079134;28;8831;-74
2023/07/09 10:23:18;;;;;;;;;11.20;11.20;;;;;27.29;23.90;99867.03;5088728;28;8952;-75
2023/07/09 10:25:55;;;;;;;;;9.80;9.80;;;;;27.57;25.00;99871.78;5088525;28;8852;-73
2023/07/09 10:28:50;;;;;;;;;8.80;8.80;;;;;27.82;24.36;99861.50;5036742;28;8850;-73
2023/07/09 10:31:33;;;;;;;;;50.75;42.25;;;;;27.99;24.62;99863.56;5067906;28;8866;-76
2023/07/09 10:34:16;;;;;;;;;27.60;26.40;;;;;27.89;24.12;99868.06;5067690;28;8973;-73
2023/07/09 10:37:01;;;;;;;;;11.00;10.20;;;;;28.07;24.25;99873.69;5069237;28;8843;-73
2023/07/09 10:39:35;;;;;;;;;8.00;8.00;;;;;28.09;23.63;99862.75;5088569;28;8871;-73
2023/07/09 10:42:05;;;;;;;;;13.00;11.20;;;;;27.87;23.38;99861.09;5083139;28;8862;-74
2023/07/09 10:44:36;;;;;;;;;13.80;13.80;;;;;28.08;24.39;99858.31;5067633;28;8890;-76
2023/07/09 10:47:11;;;;;;;;;9.40;9.40;;;;;28.39;24.51;99864.53;5066435;28;8846;-73
2023/07/09 10:49:43;;;;;;;;;10.00;8.20;;;;;28.53;24.00;99868.69;5067970;28;8827;-74
2023/07/09 10:52:22;;;;;;;;;16.40;16.40;;;;;28.48;23.29;99858.28;5063449;28;9014;-75
2023/07/09 10:55:01;;;;;;;;;11.20;9.40;;;;;28.59;23.63;99860.00;5072144;28;8847;-73
2023/07/09 10:57:34;;;;;;;;;12.60;10.80;;;;;28.35;23.35;99850.44;5067745;28;8851;-75
2023/07/09 11:00:06;;;;;;;;;10.20;10.20;;;;;28.50;23.42;99863.53;5066830;28;8838;-72
2023/07/09 11:02:39;;;;;;;;;9.80;9.80;;;;;28.40;23.13;99852.72;5067689;28;8867;-74
2023/07/09 11:05:10;;;;;;;;;12.00;11.60;;;;;27.93;24.66;99847.91;5067431;28;8838;-73
2023/07/09 11:07:44;;;;;;;;;9.40;9.40;;;;;28.35;24.34;99847.75;5048946;28;8858;-72
2023/07/09 11:10:22;;;;;;;;;7.20;7.20;;;;;28.49;24.09;99848.31;5062159;28;8874;-72
2023/07/09 11:12:59;;;;;;;;;13.20;13.20;;;;;28.69;23.57;99850.06;5070310;28;8846;-74
2023/07/09 11:15:35;;;;;;;;;10.00;9.40;;;;;28.27;23.63;99853.00;5067927;28;8862;-72
2023/07/09 11:18:08;;;;;;;;;15.00;11.40;;;;;27.82;24.24;99858.81;5067684;28;8862;-73
2023/07/09 11:20:43;;;;;;;;;10.40;10.40;;;;;28.27;24.36;99854.84;5067788;28;8831;-74
2023/07/09 11:23:20;;;;;;;;;8.20;8.20;;;;;28.74;23.70;99852.34;5067653;28;8842;-73
2023/07/09 11:26:01;;;;;;;;;10.40;10.40;;;;;29.11;22.43;99860.56;5068626;28;8951;-74
2023/07/09 11:28:35;;;;;;;;;10.80;10.80;;;;;29.49;21.93;99861.50;5032077;28;8854;-73
2023/07/09 11:31:08;;;;;;;;;9.00;9.00;;;;;29.87;22.42;99848.84;5067409;28;8854;-74
2023/07/09 11:33:48;;;;;;;;;10.20;9.00;;;;;30.17;22.06;99849.53;5067701;28;9007;-74
2023/07/09 11:36:26;;;;;;;;;10.00;9.00;;;;;30.51;22.21;99851.63;5067580;28;8854;-74
2023/07/09 11:38:55;;;;;;;;;8.40;8.40;;;;;30.66;21.24;99838.38;5067546;28;8853;-73
2023/07/09 11:41:38;;;;;;;;;33.50;31.00;;;;;30.89;20.84;99846.91;5067106;28;8858;-73
2023/07/09 11:44:15;;;;;;;;;12.80;11.20;;;;;30.91;21.42;99834.03;5040771;28;8951;-73
2023/07/09 11:47:05;;;;;;;;;8.40;8.40;;;;;31.08;21.17;99841.28;5087644;28;8828;-73